sensor_id;sensor_type;location;lat;lon;timestamp;pressure;altitude;pressure_sealevel;temperature;humidity
72428;BME280;60419;48.880;18.036;2023-11-18T00:02:11;99151.56;;;3.82;67.76
72428;BME280;60419;48.880;18.036;2023-11-18T00:04:57;99159.22;;;4.16;66.73
72428;BME280;60419;48.880;18.036;2023-11-18T00:07:42;99157.97;;;4.34;66.05
72428;BME280;60419;48.880;18.036;2023-11-18T00:10:28;99162.41;;;4.08;66.19
72428;BME280;60419;48.880;18.036;2023-11-18T00:13:14;99173.91;;;4.13;65.80
72428;BME280;60419;48.880;18.036;2023-11-18T00:16:00;99166.22;;;4.22;65.68
72428;BME280;60419;48.880;18.036;2023-11-18T00:18:46;99164.88;;;4.19;65.62
72428;BME280;60419;48.880;18.036;2023-11-18T00:21:31;99161.59;;;4.07;65.91
72428;BME280;60419;48.880;18.036;2023-11-18T00:24:16;99165.25;;;3.91;66.69
72428;BME280;60419;48.880;18.036;2023-11-18T00:27:02;99168.75;;;3.96;66.99
72428;BME280;60419;48.880;18.036;2023-11-18T00:29:51;99163.50;;;4.12;66.71
72428;BME280;60419;48.880;18.036;2023-11-18T00:32:38;99173.66;;;4.10;66.63
72428;BME280;60419;48.880;18.036;2023-11-18T00:35:24;99176.34;;;4.15;66.85
72428;BME280;60419;48.880;18.036;2023-11-18T00:38:09;99179.97;;;3.93;67.69
72428;BME280;60419;48.880;18.036;2023-11-18T00:40:55;99165.31;;;4.01;67.69
72428;BME280;60419;48.880;18.036;2023-11-18T00:43:41;99175.66;;;3.92;68.39
72428;BME280;60419;48.880;18.036;2023-11-18T00:46:26;99176.03;;;4.06;68.16
72428;BME280;60419;48.880;18.036;2023-11-18T00:49:11;99178.31;;;3.87;68.56
72428;BME280;60419;48.880;18.036;2023-11-18T00:51:57;99164.94;;;3.87;68.59
72428;BME280;60419;48.880;18.036;2023-11-18T00:54:42;99177.97;;;3.73;69.75
72428;BME280;60419;48.880;18.036;2023-11-18T00:57:27;99170.06;;;3.89;69.52
72428;BME280;60419;48.880;18.036;2023-11-18T01:00:14;99185.50;;;3.81;69.43
72428;BME280;60419;48.880;18.036;2023-11-18T01:03:07;99174.91;;;3.97;69.30
72428;BME280;60419;48.880;18.036;2023-11-18T01:05:55;99181.16;;;4.18;68.36
72428;BME280;60419;48.880;18.036;2023-11-18T01:08:43;99178.81;;;4.32;68.03
72428;BME280;60419;48.880;18.036;2023-11-18T01:11:29;99194.63;;;4.33;68.44
72428;BME280;60419;48.880;18.036;2023-11-18T01:14:14;99183.50;;;4.04;68.71
72428;BME280;60419;48.880;18.036;2023-11-18T01:16:59;99184.03;;;4.01;68.89
72428;BME280;60419;48.880;18.036;2023-11-18T01:19:45;99181.41;;;4.11;69.04
72428;BME280;60419;48.880;18.036;2023-11-18T01:22:30;99184.03;;;4.01;68.70
72428;BME280;60419;48.880;18.036;2023-11-18T01:25:16;99173.25;;;3.86;69.80
72428;BME280;60419;48.880;18.036;2023-11-18T01:28:02;99175.19;;;4.00;68.98
72428;BME280;60419;48.880;18.036;2023-11-18T01:30:49;99179.16;;;3.88;69.25
72428;BME280;60419;48.880;18.036;2023-11-18T01:33:34;99173.69;;;3.72;69.73
72428;BME280;60419;48.880;18.036;2023-11-18T01:36:22;99166.91;;;4.02;69.30
72428;BME280;60419;48.880;18.036;2023-11-18T01:39:07;99163.22;;;4.13;69.15
72428;BME280;60419;48.880;18.036;2023-11-18T01:41:52;99168.69;;;3.86;69.38
72428;BME280;60419;48.880;18.036;2023-11-18T01:44:38;99157.25;;;3.91;69.58
72428;BME280;60419;48.880;18.036;2023-11-18T01:47:23;99178.56;;;3.80;70.32
72428;BME280;60419;48.880;18.036;2023-11-18T01:50:10;99140.09;;;3.87;69.61
72428;BME280;60419;48.880;18.036;2023-11-18T01:52:57;99178.88;;;3.89;69.69
72428;BME280;60419;48.880;18.036;2023-11-18T01:55:43;99171.38;;;3.86;70.23
72428;BME280;60419;48.880;18.036;2023-11-18T01:58:28;99177.50;;;3.87;70.24
72428;BME280;60419;48.880;18.036;2023-11-18T02:01:16;99174.16;;;4.07;69.73
72428;BME280;60419;48.880;18.036;2023-11-18T02:04:03;99171.09;;;3.82;70.61
72428;BME280;60419;48.880;18.036;2023-11-18T02:06:52;99169.31;;;3.98;69.64
72428;BME280;60419;48.880;18.036;2023-11-18T02:09:37;99179.94;;;3.88;69.98
72428;BME280;60419;48.880;18.036;2023-11-18T02:12:30;99169.03;;;4.00;69.82
72428;BME280;60419;48.880;18.036;2023-11-18T02:15:20;99184.31;;;4.04;69.64
72428;BME280;60419;48.880;18.036;2023-11-18T02:18:08;99179.50;;;4.07;70.19
72428;BME280;60419;48.880;18.036;2023-11-18T02:20:55;99102.66;;;3.81;69.38
72428;BME280;60419;48.880;18.036;2023-11-18T02:23:44;99177.16;;;4.20;69.60
72428;BME280;60419;48.880;18.036;2023-11-18T02:26:29;99194.63;;;4.38;68.71
72428;BME280;60419;48.880;18.036;2023-11-18T02:29:15;99199.72;;;3.92;69.96
72428;BME280;60419;48.880;18.036;2023-11-18T02:35:05;99197.16;;;4.08;69.91
72428;BME280;60419;48.880;18.036;2023-11-18T02:37:55;99206.19;;;3.96;70.30
72428;BME280;60419;48.880;18.036;2023-11-18T02:40:42;99199.59;;;4.14;69.90
72428;BME280;60419;48.880;18.036;2023-11-18T02:43:28;99205.03;;;3.87;70.56
72428;BME280;60419;48.880;18.036;2023-11-18T02:46:14;99187.19;;;3.93;70.51
72428;BME280;60419;48.880;18.036;2023-11-18T02:49:00;99215.84;;;4.02;70.30
72428;BME280;60419;48.880;18.036;2023-11-18T02:51:45;99215.16;;;4.22;69.58
72428;BME280;60419;48.880;18.036;2023-11-18T02:54:32;99224.25;;;4.26;69.93
72428;BME280;60419;48.880;18.036;2023-11-18T02:57:18;99217.94;;;4.00;70.62
72428;BME280;60419;48.880;18.036;2023-11-18T03:00:06;99220.97;;;4.09;69.86
72428;BME280;60419;48.880;18.036;2023-11-18T03:02:57;99233.28;;;4.15;70.08
72428;BME280;60419;48.880;18.036;2023-11-18T03:05:42;99218.91;;;4.21;69.80
72428;BME280;60419;48.880;18.036;2023-11-18T03:08:27;99240.09;;;4.38;69.68
72428;BME280;60419;48.880;18.036;2023-11-18T03:11:15;99233.41;;;4.36;69.78
72428;BME280;60419;48.880;18.036;2023-11-18T03:14:01;99231.88;;;4.55;70.14
72428;BME280;60419;48.880;18.036;2023-11-18T03:16:46;99229.41;;;4.38;69.75
72428;BME280;60419;48.880;18.036;2023-11-18T03:19:32;99230.72;;;4.36;70.30
72428;BME280;60419;48.880;18.036;2023-11-18T03:22:19;99236.69;;;4.48;69.12
72428;BME280;60419;48.880;18.036;2023-11-18T03:25:05;99240.97;;;4.49;69.39
72428;BME280;60419;48.880;18.036;2023-11-18T03:27:51;99225.72;;;4.49;69.34
72428;BME280;60419;48.880;18.036;2023-11-18T03:30:39;99233.47;;;4.46;68.92
72428;BME280;60419;48.880;18.036;2023-11-18T03:33:24;99232.13;;;4.48;68.42
72428;BME280;60419;48.880;18.036;2023-11-18T03:36:10;99231.03;;;4.44;68.00
72428;BME280;60419;48.880;18.036;2023-11-18T03:38:57;99246.47;;;4.27;68.38
72428;BME280;60419;48.880;18.036;2023-11-18T03:41:42;99255.06;;;4.34;68.06
72428;BME280;60419;48.880;18.036;2023-11-18T03:44:30;99245.28;;;4.08;68.02
72428;BME280;60419;48.880;18.036;2023-11-18T03:47:16;99237.97;;;4.40;66.91
72428;BME280;60419;48.880;18.036;2023-11-18T03:50:01;99249.47;;;4.41;67.22
72428;BME280;60419;48.880;18.036;2023-11-18T03:52:47;99247.97;;;4.13;67.65
72428;BME280;60419;48.880;18.036;2023-11-18T03:55:32;99258.81;;;4.33;66.84
72428;BME280;60419;48.880;18.036;2023-11-18T03:58:18;99265.50;;;4.36;67.43
72428;BME280;60419;48.880;18.036;2023-11-18T04:01:04;99265.25;;;4.37;66.93
72428;BME280;60419;48.880;18.036;2023-11-18T04:03:51;99265.72;;;4.29;67.41
72428;BME280;60419;48.880;18.036;2023-11-18T04:06:36;99250.94;;;4.11;67.01
72428;BME280;60419;48.880;18.036;2023-11-18T04:09:22;99265.69;;;4.19;67.58
72428;BME280;60419;48.880;18.036;2023-11-18T04:12:07;99263.03;;;4.24;66.66
72428;BME280;60419;48.880;18.036;2023-11-18T04:14:53;99259.09;;;4.42;66.41
72428;BME280;60419;48.880;18.036;2023-11-18T04:17:38;99271.94;;;4.35;66.08
72428;BME280;60419;48.880;18.036;2023-11-18T04:20:24;99273.97;;;4.22;66.51
72428;BME280;60419;48.880;18.036;2023-11-18T04:23:09;99258.13;;;4.53;65.69
72428;BME280;60419;48.880;18.036;2023-11-18T04:25:57;99276.44;;;4.34;66.61
72428;BME280;60419;48.880;18.036;2023-11-18T04:28:42;99285.41;;;4.60;65.77
72428;BME280;60419;48.880;18.036;2023-11-18T04:31:27;99288.50;;;4.37;66.48
72428;BME280;60419;48.880;18.036;2023-11-18T04:34:13;99293.19;;;4.62;65.88
72428;BME280;60419;48.880;18.036;2023-11-18T04:36:58;99288.47;;;4.32;66.04
72428;BME280;60419;48.880;18.036;2023-11-18T04:39:44;99285.97;;;4.15;66.71
72428;BME280;60419;48.880;18.036;2023-11-18T04:42:29;99290.19;;;4.11;66.47
72428;BME280;60419;48.880;18.036;2023-11-18T04:45:15;99298.22;;;4.11;67.16
72428;BME280;60419;48.880;18.036;2023-11-18T04:48:00;99289.75;;;4.19;66.66
72428;BME280;60419;48.880;18.036;2023-11-18T04:50:46;99290.94;;;4.38;66.00
72428;BME280;60419;48.880;18.036;2023-11-18T04:53:31;99298.91;;;4.33;66.79
72428;BME280;60419;48.880;18.036;2023-11-18T04:56:17;99299.41;;;4.25;66.85
72428;BME280;60419;48.880;18.036;2023-11-18T04:59:03;99293.78;;;4.26;66.66
72428;BME280;60419;48.880;18.036;2023-11-18T05:01:51;99296.84;;;4.40;66.30
72428;BME280;60419;48.880;18.036;2023-11-18T05:04:38;99295.78;;;4.46;66.84
72428;BME280;60419;48.880;18.036;2023-11-18T05:07:23;99303.41;;;4.22;66.51
72428;BME280;60419;48.880;18.036;2023-11-18T05:10:09;99303.84;;;4.09;66.53
72428;BME280;60419;48.880;18.036;2023-11-18T05:12:57;99290.75;;;4.13;66.21
72428;BME280;60419;48.880;18.036;2023-11-18T05:15:43;99302.88;;;4.25;66.35
72428;BME280;60419;48.880;18.036;2023-11-18T05:18:30;99291.31;;;4.15;66.24
72428;BME280;60419;48.880;18.036;2023-11-18T05:21:19;99288.66;;;4.20;66.18
72428;BME280;60419;48.880;18.036;2023-11-18T05:24:05;99281.91;;;4.07;66.54
72428;BME280;60419;48.880;18.036;2023-11-18T05:26:50;99291.47;;;4.03;66.65
72428;BME280;60419;48.880;18.036;2023-11-18T05:29:36;99290.56;;;3.87;67.23
72428;BME280;60419;48.880;18.036;2023-11-18T05:32:22;99265.91;;;3.75;67.45
72428;BME280;60419;48.880;18.036;2023-11-18T05:35:08;99265.50;;;3.93;67.84
72428;BME280;60419;48.880;18.036;2023-11-18T05:37:56;99290.47;;;3.77;67.58
72428;BME280;60419;48.880;18.036;2023-11-18T05:40:42;99264.63;;;3.82;67.67
72428;BME280;60419;48.880;18.036;2023-11-18T05:43:31;99268.06;;;3.78;67.63
72428;BME280;60419;48.880;18.036;2023-11-18T05:46:25;99274.91;;;3.69;68.31
72428;BME280;60419;48.880;18.036;2023-11-18T05:49:14;99281.28;;;3.63;68.42
72428;BME280;60419;48.880;18.036;2023-11-18T05:52:00;99262.06;;;4.03;67.07
72428;BME280;60419;48.880;18.036;2023-11-18T05:54:46;99277.50;;;3.58;68.23
72428;BME280;60419;48.880;18.036;2023-11-18T05:57:32;99270.31;;;3.59;67.88
72428;BME280;60419;48.880;18.036;2023-11-18T06:00:18;99272.19;;;3.96;66.96
72428;BME280;60419;48.880;18.036;2023-11-18T06:03:04;99280.22;;;3.64;67.95
72428;BME280;60419;48.880;18.036;2023-11-18T06:05:49;99300.63;;;3.75;67.57
72428;BME280;60419;48.880;18.036;2023-11-18T06:08:40;99304.06;;;3.70;67.52
72428;BME280;60419;48.880;18.036;2023-11-18T06:11:27;99308.09;;;3.73;68.00
72428;BME280;60419;48.880;18.036;2023-11-18T06:14:14;99319.00;;;3.71;67.66
72428;BME280;60419;48.880;18.036;2023-11-18T06:16:59;99303.41;;;3.58;68.59
72428;BME280;60419;48.880;18.036;2023-11-18T06:19:45;99329.81;;;3.54;68.66
72428;BME280;60419;48.880;18.036;2023-11-18T06:22:31;99314.34;;;3.56;68.17
72428;BME280;60419;48.880;18.036;2023-11-18T06:25:16;99318.81;;;3.51;68.81
72428;BME280;60419;48.880;18.036;2023-11-18T06:28:01;99341.41;;;3.65;68.45
72428;BME280;60419;48.880;18.036;2023-11-18T06:30:47;99331.63;;;3.49;68.98
72428;BME280;60419;48.880;18.036;2023-11-18T06:33:32;99324.25;;;3.61;68.76
72428;BME280;60419;48.880;18.036;2023-11-18T06:36:19;99320.22;;;3.86;67.02
72428;BME280;60419;48.880;18.036;2023-11-18T06:39:06;99339.81;;;3.96;67.21
72428;BME280;60419;48.880;18.036;2023-11-18T06:41:52;99350.09;;;3.77;67.94
72428;BME280;60419;48.880;18.036;2023-11-18T06:44:38;99334.91;;;3.83;67.90
72428;BME280;60419;48.880;18.036;2023-11-18T06:47:23;99346.09;;;3.80;68.40
72428;BME280;60419;48.880;18.036;2023-11-18T06:50:10;99340.72;;;3.75;67.55
72428;BME280;60419;48.880;18.036;2023-11-18T06:52:59;99343.22;;;3.87;67.49
72428;BME280;60419;48.880;18.036;2023-11-18T06:55:44;99349.81;;;3.79;67.60
72428;BME280;60419;48.880;18.036;2023-11-18T06:58:29;99346.06;;;3.75;68.84
72428;BME280;60419;48.880;18.036;2023-11-18T07:01:16;99375.91;;;3.67;68.13
72428;BME280;60419;48.880;18.036;2023-11-18T07:04:02;99367.31;;;3.65;68.68
72428;BME280;60419;48.880;18.036;2023-11-18T07:06:49;99372.72;;;3.70;68.99
72428;BME280;60419;48.880;18.036;2023-11-18T07:09:34;99364.50;;;3.76;68.17
72428;BME280;60419;48.880;18.036;2023-11-18T07:12:21;99373.97;;;3.89;67.73
72428;BME280;60419;48.880;18.036;2023-11-18T07:15:07;99382.59;;;3.96;68.30
72428;BME280;60419;48.880;18.036;2023-11-18T07:17:55;99374.75;;;3.90;68.38
72428;BME280;60419;48.880;18.036;2023-11-18T07:20:41;99391.25;;;3.81;68.05
72428;BME280;60419;48.880;18.036;2023-11-18T07:23:26;99388.53;;;3.76;68.42
72428;BME280;60419;48.880;18.036;2023-11-18T07:26:12;99362.84;;;3.70;68.25
72428;BME280;60419;48.880;18.036;2023-11-18T07:28:59;99399.84;;;3.83;68.07
72428;BME280;60419;48.880;18.036;2023-11-18T07:31:44;99387.66;;;3.93;67.75
72428;BME280;60419;48.880;18.036;2023-11-18T07:34:31;99391.16;;;3.98;67.43
72428;BME280;60419;48.880;18.036;2023-11-18T07:37:18;99399.44;;;3.97;66.60
72428;BME280;60419;48.880;18.036;2023-11-18T07:40:04;99409.19;;;4.13;66.33
72428;BME280;60419;48.880;18.036;2023-11-18T07:42:50;99399.75;;;4.33;66.08
72428;BME280;60419;48.880;18.036;2023-11-18T07:45:36;99395.19;;;4.33;65.54
72428;BME280;60419;48.880;18.036;2023-11-18T07:48:24;99396.66;;;4.14;66.25
72428;BME280;60419;48.880;18.036;2023-11-18T07:51:10;99394.41;;;4.05;66.33
72428;BME280;60419;48.880;18.036;2023-11-18T07:53:56;99429.63;;;3.97;66.10
72428;BME280;60419;48.880;18.036;2023-11-18T07:56:41;99399.91;;;4.21;65.54
72428;BME280;60419;48.880;18.036;2023-11-18T07:59:27;99402.63;;;4.58;64.90
72428;BME280;60419;48.880;18.036;2023-11-18T08:02:14;99337.13;;;4.29;63.88
72428;BME280;60419;48.880;18.036;2023-11-18T08:05:01;99403.69;;;4.95;64.24
72428;BME280;60419;48.880;18.036;2023-11-18T08:07:48;99398.63;;;4.61;64.16
72428;BME280;60419;48.880;18.036;2023-11-18T08:10:34;99403.56;;;4.79;65.01
72428;BME280;60419;48.880;18.036;2023-11-18T08:13:22;99378.22;;;4.17;66.41
72428;BME280;60419;48.880;18.036;2023-11-18T08:16:08;99400.66;;;4.48;67.10
72428;BME280;60419;48.880;18.036;2023-11-18T08:18:54;99412.50;;;4.25;67.85
72428;BME280;60419;48.880;18.036;2023-11-18T08:21:40;99426.34;;;4.17;67.94
72428;BME280;60419;48.880;18.036;2023-11-18T08:24:26;99418.19;;;4.34;67.58
72428;BME280;60419;48.880;18.036;2023-11-18T08:27:14;99427.09;;;4.13;68.28
72428;BME280;60419;48.880;18.036;2023-11-18T08:30:00;99430.19;;;3.99;68.16
72428;BME280;60419;48.880;18.036;2023-11-18T08:32:45;99420.28;;;4.27;67.31
72428;BME280;60419;48.880;18.036;2023-11-18T08:35:31;99421.00;;;4.17;67.62
72428;BME280;60419;48.880;18.036;2023-11-18T08:38:16;99420.25;;;4.22;68.16
72428;BME280;60419;48.880;18.036;2023-11-18T08:41:03;99362.75;;;3.92;68.43
72428;BME280;60419;48.880;18.036;2023-11-18T08:43:48;99431.63;;;4.39;67.70
72428;BME280;60419;48.880;18.036;2023-11-18T08:46:34;99448.50;;;3.86;69.19
72428;BME280;60419;48.880;18.036;2023-11-18T08:49:19;99440.44;;;3.80;70.70
72428;BME280;60419;48.880;18.036;2023-11-18T08:52:07;99451.88;;;3.76;71.41
72428;BME280;60419;48.880;18.036;2023-11-18T08:54:55;99460.31;;;4.17;70.01
72428;BME280;60419;48.880;18.036;2023-11-18T08:58:02;99459.59;;;3.99;70.48
72428;BME280;60419;48.880;18.036;2023-11-18T09:00:56;99474.03;;;3.98;71.63
72428;BME280;60419;48.880;18.036;2023-11-18T09:03:46;99485.97;;;3.91;72.36
72428;BME280;60419;48.880;18.036;2023-11-18T09:06:37;99480.47;;;3.75;74.10
72428;BME280;60419;48.880;18.036;2023-11-18T09:09:24;99481.78;;;4.00;73.11
72428;BME280;60419;48.880;18.036;2023-11-18T09:12:13;99489.38;;;4.35;73.13
72428;BME280;60419;48.880;18.036;2023-11-18T09:14:59;99483.50;;;4.38;72.42
72428;BME280;60419;48.880;18.036;2023-11-18T09:17:47;99489.03;;;4.32;72.80
72428;BME280;60419;48.880;18.036;2023-11-18T09:20:32;99488.75;;;4.28;72.07
72428;BME280;60419;48.880;18.036;2023-11-18T09:23:18;99476.47;;;4.59;71.41
72428;BME280;60419;48.880;18.036;2023-11-18T09:26:04;99483.47;;;4.65;71.32
72428;BME280;60419;48.880;18.036;2023-11-18T09:28:52;99499.75;;;4.59;70.36
72428;BME280;60419;48.880;18.036;2023-11-18T09:31:38;99497.84;;;4.27;71.26
72428;BME280;60419;48.880;18.036;2023-11-18T09:34:24;99502.78;;;4.13;71.83
72428;BME280;60419;48.880;18.036;2023-11-18T09:37:18;99486.56;;;4.52;71.28
72428;BME280;60419;48.880;18.036;2023-11-18T09:40:04;99496.50;;;4.24;70.95
72428;BME280;60419;48.880;18.036;2023-11-18T09:42:56;99494.25;;;4.43;70.58
72428;BME280;60419;48.880;18.036;2023-11-18T09:45:44;99495.81;;;4.39;71.28
72428;BME280;60419;48.880;18.036;2023-11-18T09:48:30;99500.94;;;4.14;71.28
72428;BME280;60419;48.880;18.036;2023-11-18T09:51:27;99480.72;;;4.28;70.05
72428;BME280;60419;48.880;18.036;2023-11-18T09:54:18;99489.66;;;4.39;70.05
72428;BME280;60419;48.880;18.036;2023-11-18T10:00:19;99494.28;;;3.94;69.45
72428;BME280;60419;48.880;18.036;2023-11-18T10:03:06;99493.16;;;4.12;69.16
72428;BME280;60419;48.880;18.036;2023-11-18T10:05:54;99493.09;;;4.34;68.14
72428;BME280;60419;48.880;18.036;2023-11-18T10:08:40;99469.78;;;4.30;68.41
72428;BME280;60419;48.880;18.036;2023-11-18T10:11:30;99477.41;;;4.43;67.25
72428;BME280;60419;48.880;18.036;2023-11-18T10:14:19;99479.28;;;4.42;66.73
72428;BME280;60419;48.880;18.036;2023-11-18T10:17:06;99487.44;;;4.63;66.53
72428;BME280;60419;48.880;18.036;2023-11-18T10:19:56;99498.78;;;4.75;66.89
72428;BME280;60419;48.880;18.036;2023-11-18T10:22:41;99503.88;;;4.72;66.89
72428;BME280;60419;48.880;18.036;2023-11-18T10:25:27;99491.91;;;4.52;66.71
72428;BME280;60419;48.880;18.036;2023-11-18T10:28:24;99471.16;;;4.32;67.38
72428;BME280;60419;48.880;18.036;2023-11-18T10:31:18;99480.13;;;4.48;67.61
72428;BME280;60419;48.880;18.036;2023-11-18T10:34:04;99492.22;;;4.56;66.65
72428;BME280;60419;48.880;18.036;2023-11-18T10:37:00;99499.59;;;4.76;66.07
72428;BME280;60419;48.880;18.036;2023-11-18T10:39:47;99502.31;;;4.81;65.48
72428;BME280;60419;48.880;18.036;2023-11-18T10:42:36;99499.56;;;5.03;65.37
72428;BME280;60419;48.880;18.036;2023-11-18T10:45:24;99498.03;;;4.80;65.13
72428;BME280;60419;48.880;18.036;2023-11-18T10:48:12;99535.03;;;4.56;65.43
72428;BME280;60419;48.880;18.036;2023-11-18T10:51:01;99511.97;;;4.82;65.07
72428;BME280;60419;48.880;18.036;2023-11-18T10:53:48;99501.78;;;4.84;65.33
72428;BME280;60419;48.880;18.036;2023-11-18T10:56:49;99494.31;;;4.86;65.43
72428;BME280;60419;48.880;18.036;2023-11-18T10:59:35;99519.81;;;5.26;64.78
72428;BME280;60419;48.880;18.036;2023-11-18T11:02:22;99534.91;;;6.05;64.34
72428;BME280;60419;48.880;18.036;2023-11-18T11:05:09;99527.63;;;4.68;68.02
72428;BME280;60419;48.880;18.036;2023-11-18T11:08:04;99531.00;;;4.53;68.56
72428;BME280;60419;48.880;18.036;2023-11-18T11:10:52;99539.16;;;4.14;71.34
72428;BME280;60419;48.880;18.036;2023-11-18T11:13:39;99536.06;;;3.18;76.49
72428;BME280;60419;48.880;18.036;2023-11-18T11:16:54;99545.81;;;2.61;78.38
72428;BME280;60419;48.880;18.036;2023-11-18T11:23:05;99556.91;;;2.70;80.02
72428;BME280;60419;48.880;18.036;2023-11-18T11:26:10;99546.16;;;2.82;78.82
72428;BME280;60419;48.880;18.036;2023-11-18T11:29:12;99563.94;;;2.93;77.97
72428;BME280;60419;48.880;18.036;2023-11-18T11:35:01;99554.97;;;3.33;74.08
72428;BME280;60419;48.880;18.036;2023-11-18T11:37:53;99567.75;;;3.70;71.61
72428;BME280;60419;48.880;18.036;2023-11-18T11:40:48;99580.00;;;3.66;70.14
72428;BME280;60419;48.880;18.036;2023-11-18T11:43:35;99550.13;;;3.91;70.26
72428;BME280;60419;48.880;18.036;2023-11-18T11:46:22;99577.44;;;3.98;69.80
72428;BME280;60419;48.880;18.036;2023-11-18T11:49:10;99554.22;;;3.98;69.30
72428;BME280;60419;48.880;18.036;2023-11-18T11:52:09;99594.63;;;4.02;69.15
72428;BME280;60419;48.880;18.036;2023-11-18T11:55:08;99584.72;;;4.02;68.91
72428;BME280;60419;48.880;18.036;2023-11-18T11:57:58;99602.44;;;3.87;69.33
72428;BME280;60419;48.880;18.036;2023-11-18T12:00:44;99589.47;;;4.17;67.92
72428;BME280;60419;48.880;18.036;2023-11-18T12:03:30;99593.19;;;3.94;68.23
72428;BME280;60419;48.880;18.036;2023-11-18T12:06:21;99579.19;;;4.31;66.64
72428;BME280;60419;48.880;18.036;2023-11-18T12:09:09;99580.41;;;4.45;66.62
72428;BME280;60419;48.880;18.036;2023-11-18T12:11:55;99590.00;;;4.68;65.88
72428;BME280;60419;48.880;18.036;2023-11-18T12:14:51;99586.50;;;4.41;65.63
72428;BME280;60419;48.880;18.036;2023-11-18T12:20:44;99587.34;;;4.68;68.46
72428;BME280;60419;48.880;18.036;2023-11-18T12:23:32;99585.84;;;4.83;62.07
72428;BME280;60419;48.880;18.036;2023-11-18T12:26:39;99586.19;;;4.91;59.84
72428;BME280;60419;48.880;18.036;2023-11-18T12:29:30;99596.47;;;5.00;60.08
72428;BME280;60419;48.880;18.036;2023-11-18T12:42:04;99607.19;;;5.00;59.33
72428;BME280;60419;48.880;18.036;2023-11-18T12:47:55;99597.34;;;4.83;59.16
72428;BME280;60419;48.880;18.036;2023-11-18T12:50:44;99606.00;;;4.90;58.52
72428;BME280;60419;48.880;18.036;2023-11-18T12:53:30;99593.69;;;4.89;59.25
72428;BME280;60419;48.880;18.036;2023-11-18T12:56:17;99592.88;;;4.62;59.63
72428;BME280;60419;48.880;18.036;2023-11-18T12:59:04;99599.59;;;4.64;59.72
72428;BME280;60419;48.880;18.036;2023-11-18T13:01:51;99593.56;;;4.52;60.63
72428;BME280;60419;48.880;18.036;2023-11-18T13:04:41;99585.03;;;4.28;60.25
72428;BME280;60419;48.880;18.036;2023-11-18T13:07:27;99600.75;;;4.46;61.09
72428;BME280;60419;48.880;18.036;2023-11-18T13:10:12;99616.50;;;4.43;61.91
72428;BME280;60419;48.880;18.036;2023-11-18T13:13:00;99610.50;;;4.58;61.85
72428;BME280;60419;48.880;18.036;2023-11-18T13:15:46;99626.88;;;4.39;62.17
72428;BME280;60419;48.880;18.036;2023-11-18T13:18:46;99644.41;;;4.74;61.89
72428;BME280;60419;48.880;18.036;2023-11-18T13:21:34;99617.59;;;4.47;61.83
72428;BME280;60419;48.880;18.036;2023-11-18T13:24:21;99633.06;;;4.67;61.83
72428;BME280;60419;48.880;18.036;2023-11-18T13:27:08;99630.38;;;4.40;61.45
72428;BME280;60419;48.880;18.036;2023-11-18T13:29:54;99637.03;;;4.37;61.57
72428;BME280;60419;48.880;18.036;2023-11-18T13:32:41;99651.69;;;4.57;62.19
72428;BME280;60419;48.880;18.036;2023-11-18T13:35:27;99644.13;;;4.48;62.81
72428;BME280;60419;48.880;18.036;2023-11-18T13:38:13;99645.03;;;4.59;62.52
72428;BME280;60419;48.880;18.036;2023-11-18T13:40:59;99655.22;;;4.62;62.21
72428;BME280;60419;48.880;18.036;2023-11-18T13:43:48;99673.41;;;4.38;63.38
72428;BME280;60419;48.880;18.036;2023-11-18T13:46:33;99660.34;;;4.42;63.93
72428;BME280;60419;48.880;18.036;2023-11-18T13:49:27;99654.75;;;4.43;63.37
72428;BME280;60419;48.880;18.036;2023-11-18T13:52:13;99671.03;;;4.42;63.40
72428;BME280;60419;48.880;18.036;2023-11-18T13:55:02;99670.25;;;4.90;62.66
72428;BME280;60419;48.880;18.036;2023-11-18T13:57:55;99671.09;;;4.47;64.25
72428;BME280;60419;48.880;18.036;2023-11-18T14:00:42;99676.50;;;4.52;64.38
72428;BME280;60419;48.880;18.036;2023-11-18T14:03:28;99684.06;;;4.33;64.90
72428;BME280;60419;48.880;18.036;2023-11-18T14:06:13;99679.00;;;4.37;65.89
72428;BME280;60419;48.880;18.036;2023-11-18T14:09:02;99694.94;;;4.48;65.10
72428;BME280;60419;48.880;18.036;2023-11-18T14:11:52;99681.00;;;4.46;66.01
72428;BME280;60419;48.880;18.036;2023-11-18T14:14:37;99691.09;;;4.61;66.44
72428;BME280;60419;48.880;18.036;2023-11-18T14:17:23;99683.38;;;4.43;66.23
72428;BME280;60419;48.880;18.036;2023-11-18T14:20:08;99681.34;;;4.50;66.20
72428;BME280;60419;48.880;18.036;2023-11-18T14:22:58;99695.06;;;4.37;66.57
72428;BME280;60419;48.880;18.036;2023-11-18T14:25:44;99687.44;;;4.45;66.87
72428;BME280;60419;48.880;18.036;2023-11-18T14:28:29;99693.94;;;4.77;66.35
72428;BME280;60419;48.880;18.036;2023-11-18T14:31:16;99688.75;;;4.70;65.68
72428;BME280;60419;48.880;18.036;2023-11-18T14:34:01;99674.97;;;4.56;66.16
72428;BME280;60419;48.880;18.036;2023-11-18T14:36:47;99676.41;;;4.42;66.80
72428;BME280;60419;48.880;18.036;2023-11-18T14:39:32;99608.22;;;4.00;66.67
72428;BME280;60419;48.880;18.036;2023-11-18T14:42:18;99660.59;;;4.40;66.47
72428;BME280;60419;48.880;18.036;2023-11-18T14:45:06;99677.69;;;4.39;66.35
72428;BME280;60419;48.880;18.036;2023-11-18T14:47:53;99670.03;;;4.26;66.17
72428;BME280;60419;48.880;18.036;2023-11-18T14:50:41;99676.84;;;4.34;66.73
72428;BME280;60419;48.880;18.036;2023-11-18T14:53:26;99697.38;;;4.28;66.08
72428;BME280;60419;48.880;18.036;2023-11-18T14:56:12;99686.28;;;4.19;65.41
72428;BME280;60419;48.880;18.036;2023-11-18T14:58:59;99660.25;;;7.75;80.50
72428;BME280;60419;48.880;18.036;2023-11-18T15:01:47;99670.56;;;8.93;80.93
72428;BME280;60419;48.880;18.036;2023-11-18T15:04:33;99672.41;;;5.48;62.07
72428;BME280;60419;48.880;18.036;2023-11-18T15:07:19;99666.06;;;4.29;65.49
72428;BME280;60419;48.880;18.036;2023-11-18T15:10:04;99675.41;;;4.26;66.75
72428;BME280;60419;48.880;18.036;2023-11-18T15:12:52;99670.13;;;4.09;67.35
72428;BME280;60419;48.880;18.036;2023-11-18T15:15:44;99660.16;;;4.04;67.71